sensor_id;sensor_type;location;lat;lon;timestamp;pressure;altitude;pressure_sealevel;temperature;humidity
56456;BME280;42354;53.218;6.564;2023-03-04T00:01:35;47003.69;;;-142.92;69.15
56456;BME280;42354;53.218;6.564;2023-03-04T00:04:01;47016.00;;;-142.92;69.41
56456;BME280;42354;53.218;6.564;2023-03-04T00:06:26;47003.69;;;-142.92;69.35
56456;BME280;42354;53.218;6.564;2023-03-04T00:08:51;46991.38;;;-142.92;69.08
56456;BME280;42354;53.218;6.564;2023-03-04T00:11:18;46999.59;;;-142.92;68.19
56456;BME280;42354;53.218;6.564;2023-03-04T00:13:44;46999.59;;;-142.92;68.13
56456;BME280;42354;53.218;6.564;2023-03-04T00:16:09;47011.91;;;-142.92;68.15
56456;BME280;42354;53.218;6.564;2023-03-04T00:18:34;46974.97;;;-142.92;68.24
56456;BME280;42354;53.218;6.564;2023-03-04T00:21:00;46991.38;;;-142.92;68.44
56456;BME280;42354;53.218;6.564;2023-03-04T00:23:25;46991.38;;;-142.92;68.03
56456;BME280;42354;53.218;6.564;2023-03-04T00:25:50;47005.75;;;-142.92;68.55
56456;BME280;42354;53.218;6.564;2023-03-04T00:28:16;46983.19;;;-142.92;68.74
56456;BME280;42354;53.218;6.564;2023-03-04T00:30:41;46989.34;;;-142.92;68.99
56456;BME280;42354;53.218;6.564;2023-03-04T00:33:06;47011.91;;;-142.92;69.01
56456;BME280;42354;53.218;6.564;2023-03-04T00:35:32;46999.59;;;-142.92;69.34
56456;BME280;42354;53.218;6.564;2023-03-04T00:37:57;47011.91;;;-142.92;69.48
56456;BME280;42354;53.218;6.564;2023-03-04T00:40:23;46995.50;;;-142.92;69.25
56456;BME280;42354;53.218;6.564;2023-03-04T00:42:49;47005.75;;;-142.92;69.12
56456;BME280;42354;53.218;6.564;2023-03-04T00:45:15;46999.59;;;-142.92;69.03
56456;BME280;42354;53.218;6.564;2023-03-04T00:47:40;47009.84;;;-142.92;68.14
56456;BME280;42354;53.218;6.564;2023-03-04T00:50:06;47009.84;;;-142.92;68.24
56456;BME280;42354;53.218;6.564;2023-03-04T00:52:31;47007.81;;;-142.92;68.32
56456;BME280;42354;53.218;6.564;2023-03-04T00:54:56;47001.66;;;-142.92;68.69
56456;BME280;42354;53.218;6.564;2023-03-04T00:57:22;46999.59;;;-142.92;69.12
56456;BME280;42354;53.218;6.564;2023-03-04T00:59:47;46991.38;;;-142.92;69.39
56456;BME280;42354;53.218;6.564;2023-03-04T01:02:12;46983.19;;;-142.92;69.50
56456;BME280;42354;53.218;6.564;2023-03-04T01:04:38;46993.44;;;-142.92;69.78
56456;BME280;42354;53.218;6.564;2023-03-04T01:07:03;47020.13;;;-142.92;70.16
56456;BME280;42354;53.218;6.564;2023-03-04T01:09:29;47007.81;;;-142.92;70.31
56456;BME280;42354;53.218;6.564;2023-03-04T01:11:55;47005.75;;;-142.92;70.68
56456;BME280;42354;53.218;6.564;2023-03-04T01:14:21;46987.28;;;-142.92;70.83
56456;BME280;42354;53.218;6.564;2023-03-04T01:16:47;46985.22;;;-142.92;71.06
56456;BME280;42354;53.218;6.564;2023-03-04T01:19:13;46997.53;;;-142.92;71.10
56456;BME280;42354;53.218;6.564;2023-03-04T01:21:38;46991.38;;;-142.92;71.54
56456;BME280;42354;53.218;6.564;2023-03-04T01:24:04;46991.38;;;-142.92;71.74
56456;BME280;42354;53.218;6.564;2023-03-04T01:26:29;47005.75;;;-142.92;71.45
56456;BME280;42354;53.218;6.564;2023-03-04T01:28:54;46972.91;;;-142.92;71.32
56456;BME280;42354;53.218;6.564;2023-03-04T01:31:20;47011.91;;;-142.92;71.28
56456;BME280;42354;53.218;6.564;2023-03-04T01:33:45;46993.44;;;-142.92;71.15
56456;BME280;42354;53.218;6.564;2023-03-04T01:36:10;47024.22;;;-142.92;70.98
56456;BME280;42354;53.218;6.564;2023-03-04T01:38:36;46991.38;;;-142.92;70.95
56456;BME280;42354;53.218;6.564;2023-03-04T01:41:01;47011.91;;;-142.92;71.23
56456;BME280;42354;53.218;6.564;2023-03-04T01:43:28;47003.69;;;-142.92;71.59
56456;BME280;42354;53.218;6.564;2023-03-04T01:45:55;47003.69;;;-142.92;71.81
56456;BME280;42354;53.218;6.564;2023-03-04T01:48:27;47007.81;;;-142.92;72.29
56456;BME280;42354;53.218;6.564;2023-03-04T01:50:54;46987.28;;;-142.92;73.75
56456;BME280;42354;53.218;6.564;2023-03-04T01:53:23;47003.69;;;-142.92;74.72
56456;BME280;42354;53.218;6.564;2023-03-04T01:55:51;46999.59;;;-142.92;75.87
56456;BME280;42354;53.218;6.564;2023-03-04T01:58:18;47001.66;;;-142.92;76.60
56456;BME280;42354;53.218;6.564;2023-03-04T02:00:44;46993.44;;;-142.92;76.99
56456;BME280;42354;53.218;6.564;2023-03-04T02:03:13;47016.00;;;-142.92;77.20
56456;BME280;42354;53.218;6.564;2023-03-04T02:05:42;46991.38;;;-142.92;77.13
56456;BME280;42354;53.218;6.564;2023-03-04T02:08:08;46985.22;;;-142.92;76.84
56456;BME280;42354;53.218;6.564;2023-03-04T02:10:34;46970.88;;;-142.92;77.07
56456;BME280;42354;53.218;6.564;2023-03-04T02:13:01;46997.53;;;-142.92;76.86
56456;BME280;42354;53.218;6.564;2023-03-04T02:15:28;46987.28;;;-142.92;77.00
56456;BME280;42354;53.218;6.564;2023-03-04T02:17:53;46989.34;;;-142.92;76.71
56456;BME280;42354;53.218;6.564;2023-03-04T02:20:44;46977.03;;;-142.92;75.65
56456;BME280;42354;53.218;6.564;2023-03-04T02:26:14;46995.50;;;-142.92;74.59
56456;BME280;42354;53.218;6.564;2023-03-04T02:28:40;46987.28;;;-142.92;74.56
56456;BME280;42354;53.218;6.564;2023-03-04T02:31:13;46979.06;;;-142.92;73.87
56456;BME280;42354;53.218;6.564;2023-03-04T02:33:44;46993.44;;;-142.92;73.41
56456;BME280;42354;53.218;6.564;2023-03-04T02:36:09;47009.84;;;-142.92;73.33
56456;BME280;42354;53.218;6.564;2023-03-04T02:38:35;46997.53;;;-142.92;73.46
56456;BME280;42354;53.218;6.564;2023-03-04T02:41:01;46995.50;;;-142.92;73.19
56456;BME280;42354;53.218;6.564;2023-03-04T02:43:27;46970.88;;;-142.92;73.11
56456;BME280;42354;53.218;6.564;2023-03-04T02:45:52;47007.81;;;-142.92;72.96
56456;BME280;42354;53.218;6.564;2023-03-04T02:48:20;46983.19;;;-142.92;73.11
56456;BME280;42354;53.218;6.564;2023-03-04T02:50:48;47009.84;;;-142.92;72.76
56456;BME280;42354;53.218;6.564;2023-03-04T02:53:14;46993.44;;;-142.92;73.26
56456;BME280;42354;53.218;6.564;2023-03-04T02:55:40;46995.50;;;-142.92;73.28
56456;BME280;42354;53.218;6.564;2023-03-04T02:58:08;46995.50;;;-142.92;73.77
56456;BME280;42354;53.218;6.564;2023-03-04T03:00:33;46987.28;;;-142.92;74.17
56456;BME280;42354;53.218;6.564;2023-03-04T03:02:59;47007.81;;;-142.92;74.38
56456;BME280;42354;53.218;6.564;2023-03-04T03:05:29;46991.38;;;-142.92;74.38
56456;BME280;42354;53.218;6.564;2023-03-04T03:07:55;47007.81;;;-142.92;74.67
56456;BME280;42354;53.218;6.564;2023-03-04T03:10:20;46997.53;;;-142.92;74.85
56456;BME280;42354;53.218;6.564;2023-03-04T03:12:46;47013.97;;;-142.92;75.23
56456;BME280;42354;53.218;6.564;2023-03-04T03:15:11;46987.28;;;-142.92;75.36
56456;BME280;42354;53.218;6.564;2023-03-04T03:17:39;46983.19;;;-142.92;75.78
56456;BME280;42354;53.218;6.564;2023-03-04T03:20:04;47007.81;;;-142.92;76.33
56456;BME280;42354;53.218;6.564;2023-03-04T03:22:30;46991.38;;;-142.92;76.47
56456;BME280;42354;53.218;6.564;2023-03-04T03:24:55;46966.75;;;-142.92;76.85
56456;BME280;42354;53.218;6.564;2023-03-04T03:27:21;46997.53;;;-142.92;77.26
56456;BME280;42354;53.218;6.564;2023-03-04T03:29:46;47005.75;;;-142.92;77.44
56456;BME280;42354;53.218;6.564;2023-03-04T03:32:12;46987.28;;;-142.92;77.44
56456;BME280;42354;53.218;6.564;2023-03-04T03:34:37;46989.34;;;-142.92;77.65
56456;BME280;42354;53.218;6.564;2023-03-04T03:37:03;47001.66;;;-142.92;77.40
56456;BME280;42354;53.218;6.564;2023-03-04T03:39:28;46997.53;;;-142.92;77.44
56456;BME280;42354;53.218;6.564;2023-03-04T03:41:54;46995.50;;;-142.92;77.64
56456;BME280;42354;53.218;6.564;2023-03-04T03:44:20;46997.53;;;-142.92;77.40
56456;BME280;42354;53.218;6.564;2023-03-04T03:46:45;47007.81;;;-142.92;77.38
56456;BME280;42354;53.218;6.564;2023-03-04T03:49:11;46993.44;;;-142.92;77.44
56456;BME280;42354;53.218;6.564;2023-03-04T03:51:37;46987.28;;;-142.92;77.65
56456;BME280;42354;53.218;6.564;2023-03-04T03:54:02;46997.53;;;-142.92;77.63
56456;BME280;42354;53.218;6.564;2023-03-04T03:56:28;47011.91;;;-142.92;77.65
56456;BME280;42354;53.218;6.564;2023-03-04T03:58:53;47005.75;;;-142.92;77.65
56456;BME280;42354;53.218;6.564;2023-03-04T04:01:20;47003.69;;;-142.92;77.24
56456;BME280;42354;53.218;6.564;2023-03-04T04:03:45;46995.50;;;-142.92;77.55
56456;BME280;42354;53.218;6.564;2023-03-04T04:06:11;46987.28;;;-142.92;77.88
56456;BME280;42354;53.218;6.564;2023-03-04T04:08:36;46991.38;;;-142.92;78.07
56456;BME280;42354;53.218;6.564;2023-03-04T04:11:01;47016.00;;;-142.92;77.98
56456;BME280;42354;53.218;6.564;2023-03-04T04:13:27;46993.44;;;-142.92;78.41
56456;BME280;42354;53.218;6.564;2023-03-04T04:15:52;47005.75;;;-142.92;78.63
56456;BME280;42354;53.218;6.564;2023-03-04T04:18:17;46999.59;;;-142.92;78.33
56456;BME280;42354;53.218;6.564;2023-03-04T04:20:43;46991.38;;;-142.92;78.51
56456;BME280;42354;53.218;6.564;2023-03-04T04:23:08;47009.84;;;-142.92;78.73
56456;BME280;42354;53.218;6.564;2023-03-04T04:25:35;46997.53;;;-142.92;78.68
56456;BME280;42354;53.218;6.564;2023-03-04T04:28:00;47011.91;;;-142.92;78.90
56456;BME280;42354;53.218;6.564;2023-03-04T04:30:26;46985.22;;;-142.92;79.13
56456;BME280;42354;53.218;6.564;2023-03-04T04:32:51;46993.44;;;-142.92;79.24
56456;BME280;42354;53.218;6.564;2023-03-04T04:35:17;46995.50;;;-142.92;79.82
56456;BME280;42354;53.218;6.564;2023-03-04T04:37:42;47024.22;;;-142.92;80.48
56456;BME280;42354;53.218;6.564;2023-03-04T04:40:08;47005.75;;;-142.92;80.92
56456;BME280;42354;53.218;6.564;2023-03-04T04:42:33;47003.69;;;-142.92;81.33
56456;BME280;42354;53.218;6.564;2023-03-04T04:44:59;46977.03;;;-142.92;81.50
56456;BME280;42354;53.218;6.564;2023-03-04T04:47:24;46997.53;;;-142.92;82.28
56456;BME280;42354;53.218;6.564;2023-03-04T04:49:50;47011.91;;;-142.92;82.97
56456;BME280;42354;53.218;6.564;2023-03-04T04:52:16;46993.44;;;-142.92;83.24
56456;BME280;42354;53.218;6.564;2023-03-04T04:54:41;47009.84;;;-142.92;83.92
56456;BME280;42354;53.218;6.564;2023-03-04T04:57:07;47005.75;;;-142.92;84.19
56456;BME280;42354;53.218;6.564;2023-03-04T04:59:32;46989.34;;;-142.92;84.28
56456;BME280;42354;53.218;6.564;2023-03-04T05:01:57;47011.91;;;-142.92;84.82
56456;BME280;42354;53.218;6.564;2023-03-04T05:04:23;46979.06;;;-142.92;85.35
56456;BME280;42354;53.218;6.564;2023-03-04T05:06:48;46964.72;;;-142.92;86.20
56456;BME280;42354;53.218;6.564;2023-03-04T05:09:13;46993.44;;;-142.92;87.16
56456;BME280;42354;53.218;6.564;2023-03-04T05:11:39;46989.34;;;-142.92;87.92
56456;BME280;42354;53.218;6.564;2023-03-04T05:14:04;47007.81;;;-142.92;88.59
56456;BME280;42354;53.218;6.564;2023-03-04T05:16:29;46999.59;;;-142.92;89.84
56456;BME280;42354;53.218;6.564;2023-03-04T05:18:55;47001.66;;;-142.92;91.33
56456;BME280;42354;53.218;6.564;2023-03-04T05:21:20;46993.44;;;-142.92;92.16
56456;BME280;42354;53.218;6.564;2023-03-04T05:23:46;47001.66;;;-142.92;93.03
56456;BME280;42354;53.218;6.564;2023-03-04T05:26:16;47011.91;;;-142.92;93.93
56456;BME280;42354;53.218;6.564;2023-03-04T05:28:42;46995.50;;;-142.92;95.07
56456;BME280;42354;53.218;6.564;2023-03-04T05:31:07;47013.97;;;-142.92;96.08
56456;BME280;42354;53.218;6.564;2023-03-04T05:33:33;46995.50;;;-142.92;97.23
56456;BME280;42354;53.218;6.564;2023-03-04T05:35:59;47005.75;;;-142.92;97.81
56456;BME280;42354;53.218;6.564;2023-03-04T05:38:25;46993.44;;;-142.92;98.12
56456;BME280;42354;53.218;6.564;2023-03-04T05:40:56;46991.38;;;-142.92;98.46
56456;BME280;42354;53.218;6.564;2023-03-04T05:43:23;46991.38;;;-142.92;98.82
56456;BME280;42354;53.218;6.564;2023-03-04T05:45:49;46987.28;;;-142.92;98.86
56456;BME280;42354;53.218;6.564;2023-03-04T05:48:14;47003.69;;;-142.92;99.58
56456;BME280;42354;53.218;6.564;2023-03-04T05:50:39;46999.59;;;-142.92;99.62
56456;BME280;42354;53.218;6.564;2023-03-04T05:53:05;47003.69;;;-142.92;100.00
56456;BME280;42354;53.218;6.564;2023-03-04T05:55:31;46999.59;;;-142.92;100.00
56456;BME280;42354;53.218;6.564;2023-03-04T05:57:56;46970.88;;;-142.92;100.00
56456;BME280;42354;53.218;6.564;2023-03-04T06:00:22;46995.50;;;-142.92;100.00
56456;BME280;42354;53.218;6.564;2023-03-04T06:02:48;46981.13;;;-142.92;100.00
56456;BME280;42354;53.218;6.564;2023-03-04T06:05:14;47001.66;;;-142.92;100.00
56456;BME280;42354;53.218;6.564;2023-03-04T06:07:40;46997.53;;;-142.92;99.83
56456;BME280;42354;53.218;6.564;2023-03-04T06:10:08;46997.53;;;-142.92;99.40
56456;BME280;42354;53.218;6.564;2023-03-04T06:12:33;47028.31;;;-142.92;99.09
56456;BME280;42354;53.218;6.564;2023-03-04T06:14:58;47003.69;;;-142.92;99.05
56456;BME280;42354;53.218;6.564;2023-03-04T06:17:24;46995.50;;;-142.92;98.64
56456;BME280;42354;53.218;6.564;2023-03-04T06:19:49;46983.19;;;-142.92;98.91
56456;BME280;42354;53.218;6.564;2023-03-04T06:22:14;47003.69;;;-142.92;99.64
56456;BME280;42354;53.218;6.564;2023-03-04T06:24:40;46999.59;;;-142.92;99.90
56456;BME280;42354;53.218;6.564;2023-03-04T06:27:06;46991.38;;;-142.92;100.00
56456;BME280;42354;53.218;6.564;2023-03-04T06:29:31;47003.69;;;-142.92;100.00
56456;BME280;42354;53.218;6.564;2023-03-04T06:31:57;46997.53;;;-142.92;100.00
56456;BME280;42354;53.218;6.564;2023-03-04T06:34:22;47003.69;;;-142.92;100.00
56456;BME280;42354;53.218;6.564;2023-03-04T06:36:47;46979.06;;;-142.92;100.00
56456;BME280;42354;53.218;6.564;2023-03-04T06:39:13;47001.66;;;-142.92;100.00
56456;BME280;42354;53.218;6.564;2023-03-04T06:41:39;46997.53;;;-142.92;100.00
56456;BME280;42354;53.218;6.564;2023-03-04T06:44:04;46995.50;;;-142.92;100.00
56456;BME280;42354;53.218;6.564;2023-03-04T06:46:32;47007.81;;;-142.92;100.00
56456;BME280;42354;53.218;6.564;2023-03-04T06:48:57;46995.50;;;-142.92;100.00
56456;BME280;42354;53.218;6.564;2023-03-04T06:51:22;46993.44;;;-142.92;100.00
56456;BME280;42354;53.218;6.564;2023-03-04T06:53:48;47024.22;;;-142.92;100.00
56456;BME280;42354;53.218;6.564;2023-03-04T06:56:14;47001.66;;;-142.92;100.00
56456;BME280;42354;53.218;6.564;2023-03-04T06:58:43;47007.81;;;-142.92;100.00
56456;BME280;42354;53.218;6.564;2023-03-04T07:01:15;47013.97;;;-142.92;100.00
56456;BME280;42354;53.218;6.564;2023-03-04T07:03:42;47011.91;;;-142.92;100.00
56456;BME280;42354;53.218;6.564;2023-03-04T07:06:12;47003.69;;;-142.92;100.00
56456;BME280;42354;53.218;6.564;2023-03-04T07:08:38;46974.97;;;-142.92;100.00
56456;BME280;42354;53.218;6.564;2023-03-04T07:11:03;46989.34;;;-142.92;100.00
56456;BME280;42354;53.218;6.564;2023-03-04T07:13:29;46999.59;;;-142.92;100.00
56456;BME280;42354;53.218;6.564;2023-03-04T07:15:54;46987.28;;;-142.92;100.00
56456;BME280;42354;53.218;6.564;2023-03-04T07:18:20;46997.53;;;-142.92;100.00
56456;BME280;42354;53.218;6.564;2023-03-04T07:20:45;47013.97;;;-142.92;100.00
56456;BME280;42354;53.218;6.564;2023-03-04T07:23:10;46991.38;;;-142.92;100.00
56456;BME280;42354;53.218;6.564;2023-03-04T07:25:36;47005.75;;;-142.92;100.00
56456;BME280;42354;53.218;6.564;2023-03-04T07:28:01;46981.13;;;-142.92;100.00
56456;BME280;42354;53.218;6.564;2023-03-04T07:30:27;46999.59;;;-142.92;100.00
56456;BME280;42354;53.218;6.564;2023-03-04T07:32:52;47003.69;;;-142.92;100.00
56456;BME280;42354;53.218;6.564;2023-03-04T07:35:20;46987.28;;;-142.92;100.00
56456;BME280;42354;53.218;6.564;2023-03-04T07:37:46;46997.53;;;-142.92;100.00
56456;BME280;42354;53.218;6.564;2023-03-04T07:40:11;47005.75;;;-142.92;100.00
56456;BME280;42354;53.218;6.564;2023-03-04T07:42:37;46985.22;;;-142.92;100.00
56456;BME280;42354;53.218;6.564;2023-03-04T07:45:04;46987.28;;;-142.92;100.00
56456;BME280;42354;53.218;6.564;2023-03-04T07:47:29;46985.22;;;-142.92;100.00
56456;BME280;42354;53.218;6.564;2023-03-04T07:49:55;46997.53;;;-142.92;100.00
56456;BME280;42354;53.218;6.564;2023-03-04T07:52:20;47013.97;;;-142.92;100.00
56456;BME280;42354;53.218;6.564;2023-03-04T07:54:45;47001.66;;;-142.92;100.00
56456;BME280;42354;53.218;6.564;2023-03-04T07:57:11;46999.59;;;-142.92;100.00
56456;BME280;42354;53.218;6.564;2023-03-04T07:59:36;47009.84;;;-142.92;100.00
56456;BME280;42354;53.218;6.564;2023-03-04T08:02:01;46999.59;;;-142.92;100.00
56456;BME280;42354;53.218;6.564;2023-03-04T08:04:27;46987.28;;;-142.92;100.00
56456;BME280;42354;53.218;6.564;2023-03-04T08:06:52;47003.69;;;-142.92;100.00
56456;BME280;42354;53.218;6.564;2023-03-04T08:09:17;46997.53;;;-142.92;100.00
56456;BME280;42354;53.218;6.564;2023-03-04T08:11:43;46997.53;;;-142.92;100.00
56456;BME280;42354;53.218;6.564;2023-03-04T08:14:11;46977.03;;;-142.92;100.00
56456;BME280;42354;53.218;6.564;2023-03-04T08:16:36;46999.59;;;-142.92;100.00
56456;BME280;42354;53.218;6.564;2023-03-04T08:19:02;46987.28;;;-142.92;100.00
56456;BME280;42354;53.218;6.564;2023-03-04T08:21:29;47001.66;;;-142.92;100.00
56456;BME280;42354;53.218;6.564;2023-03-04T08:23:57;46987.28;;;-142.92;100.00
56456;BME280;42354;53.218;6.564;2023-03-04T08:26:32;46999.59;;;-142.92;100.00
56456;BME280;42354;53.218;6.564;2023-03-04T08:29:03;46999.59;;;-142.92;100.00
56456;BME280;42354;53.218;6.564;2023-03-04T08:31:29;46997.53;;;-142.92;100.00
56456;BME280;42354;53.218;6.564;2023-03-04T08:33:55;46991.38;;;-142.92;100.00
56456;BME280;42354;53.218;6.564;2023-03-04T08:36:21;46974.97;;;-142.92;100.00
56456;BME280;42354;53.218;6.564;2023-03-04T08:38:46;47016.00;;;-142.92;100.00
56456;BME280;42354;53.218;6.564;2023-03-04T08:41:12;46997.53;;;-142.92;100.00
56456;BME280;42354;53.218;6.564;2023-03-04T08:43:38;46995.50;;;-142.92;100.00
56456;BME280;42354;53.218;6.564;2023-03-04T08:46:04;46987.28;;;-142.92;100.00
56456;BME280;42354;53.218;6.564;2023-03-04T08:48:30;47003.69;;;-142.92;100.00
56456;BME280;42354;53.218;6.564;2023-03-04T08:50:55;47003.69;;;-142.92;100.00
56456;BME280;42354;53.218;6.564;2023-03-04T08:53:21;47003.69;;;-142.92;100.00
56456;BME280;42354;53.218;6.564;2023-03-04T08:55:47;46991.38;;;-142.92;100.00
56456;BME280;42354;53.218;6.564;2023-03-04T08:58:13;47007.81;;;-142.92;99.62
56456;BME280;42354;53.218;6.564;2023-03-04T09:00:41;47018.06;;;-142.92;98.37
56456;BME280;42354;53.218;6.564;2023-03-04T09:03:10;47011.91;;;-142.92;96.45
56456;BME280;42354;53.218;6.564;2023-03-04T09:05:36;46995.50;;;-142.92;95.83
56456;BME280;42354;53.218;6.564;2023-03-04T09:08:01;46991.38;;;-142.92;92.71
56456;BME280;42354;53.218;6.564;2023-03-04T09:10:27;47003.69;;;-142.92;91.52
56456;BME280;42354;53.218;6.564;2023-03-04T09:12:52;47011.91;;;-142.92;89.07
56456;BME280;42354;53.218;6.564;2023-03-04T09:15:18;46995.50;;;-142.92;88.86
56456;BME280;42354;53.218;6.564;2023-03-04T09:17:43;46997.53;;;-142.92;88.51
56456;BME280;42354;53.218;6.564;2023-03-04T09:20:11;46999.59;;;-142.92;86.41
56456;BME280;42354;53.218;6.564;2023-03-04T09:22:37;46999.59;;;-142.92;84.92
56456;BME280;42354;53.218;6.564;2023-03-04T09:25:04;47003.69;;;-142.92;84.34
56456;BME280;42354;53.218;6.564;2023-03-04T09:27:29;47005.75;;;-142.92;85.38
56456;BME280;42354;53.218;6.564;2023-03-04T09:29:55;47001.66;;;-142.92;85.57
56456;BME280;42354;53.218;6.564;2023-03-04T09:32:20;46995.50;;;-142.92;85.88
56456;BME280;42354;53.218;6.564;2023-03-04T09:34:46;47013.97;;;-142.92;85.56
56456;BME280;42354;53.218;6.564;2023-03-04T09:37:12;47016.00;;;-142.92;85.46
56456;BME280;42354;53.218;6.564;2023-03-04T09:39:38;46997.53;;;-142.92;85.31
56456;BME280;42354;53.218;6.564;2023-03-04T09:42:05;46995.50;;;-142.92;84.35
56456;BME280;42354;53.218;6.564;2023-03-04T09:44:42;47011.91;;;-142.92;82.33
56456;BME280;42354;53.218;6.564;2023-03-04T09:47:15;47016.00;;;-142.92;80.17
56456;BME280;42354;53.218;6.564;2023-03-04T09:49:44;47001.66;;;-142.92;78.55
56456;BME280;42354;53.218;6.564;2023-03-04T10:00:24;47003.69;;;-142.92;74.21
56456;BME280;42354;53.218;6.564;2023-03-04T10:03:12;47003.69;;;-142.92;74.96
56456;BME280;42354;53.218;6.564;2023-03-04T10:05:55;47016.00;;;-142.92;76.19
56456;BME280;42354;53.218;6.564;2023-03-04T10:11:24;47009.84;;;-142.92;79.49
56456;BME280;42354;53.218;6.564;2023-03-04T10:13:54;46995.50;;;-142.92;79.62
56456;BME280;42354;53.218;6.564;2023-03-04T10:16:25;47007.81;;;-142.92;79.87
56456;BME280;42354;53.218;6.564;2023-03-04T10:18:58;47011.91;;;-142.92;79.53
56456;BME280;42354;53.218;6.564;2023-03-04T10:21:33;47011.91;;;-142.92;79.36
56456;BME280;42354;53.218;6.564;2023-03-04T10:24:10;46993.44;;;-142.92;79.14
56456;BME280;42354;53.218;6.564;2023-03-04T10:26:38;47026.28;;;-142.92;79.28
56456;BME280;42354;53.218;6.564;2023-03-04T10:29:03;47005.75;;;-142.92;79.03
56456;BME280;42354;53.218;6.564;2023-03-04T10:31:36;47003.69;;;-142.92;77.32
56456;BME280;42354;53.218;6.564;2023-03-04T10:34:03;46987.28;;;-142.92;73.68
56456;BME280;42354;53.218;6.564;2023-03-04T10:39:00;47007.81;;;-142.92;69.21
56456;BME280;42354;53.218;6.564;2023-03-04T10:41:29;47003.69;;;-142.92;67.72
56456;BME280;42354;53.218;6.564;2023-03-04T10:46:30;47024.22;;;-142.92;67.04
56456;BME280;42354;53.218;6.564;2023-03-04T10:48:57;47007.81;;;-142.92;65.35
56456;BME280;42354;53.218;6.564;2023-03-04T10:51:28;47011.91;;;-142.92;65.38
56456;BME280;42354;53.218;6.564;2023-03-04T10:54:00;46997.53;;;-142.92;64.12
56456;BME280;42354;53.218;6.564;2023-03-04T10:56:53;46979.06;;;-142.92;64.26
56456;BME280;42354;53.218;6.564;2023-03-04T11:01:52;46999.59;;;-142.92;63.40
56456;BME280;42354;53.218;6.564;2023-03-04T11:04:18;46993.44;;;-142.92;63.26
56456;BME280;42354;53.218;6.564;2023-03-04T11:06:46;46999.59;;;-142.92;64.62
56456;BME280;42354;53.218;6.564;2023-03-04T11:09:24;46991.38;;;-142.92;65.09
56456;BME280;42354;53.218;6.564;2023-03-04T11:11:51;47009.84;;;-142.92;65.10
56456;BME280;42354;53.218;6.564;2023-03-04T11:14:52;47011.91;;;-142.92;65.20
56456;BME280;42354;53.218;6.564;2023-03-04T11:19:47;47007.81;;;-142.92;65.03
56456;BME280;42354;53.218;6.564;2023-03-04T11:22:17;47009.84;;;-142.92;64.58
56456;BME280;42354;53.218;6.564;2023-03-04T11:25:00;46989.34;;;-142.92;64.24
56456;BME280;42354;53.218;6.564;2023-03-04T11:27:39;46999.59;;;-142.92;65.27
56456;BME280;42354;53.218;6.564;2023-03-04T11:30:22;46999.59;;;-142.92;66.86
56456;BME280;42354;53.218;6.564;2023-03-04T11:32:52;47001.66;;;-142.92;68.91
56456;BME280;42354;53.218;6.564;2023-03-04T11:35:31;47001.66;;;-142.92;71.08
56456;BME280;42354;53.218;6.564;2023-03-04T11:40:51;47007.81;;;-142.92;75.12
56456;BME280;42354;53.218;6.564;2023-03-04T11:43:35;46989.34;;;-142.92;75.12
56456;BME280;42354;53.218;6.564;2023-03-04T11:57:24;47009.84;;;-142.92;70.22
56456;BME280;42354;53.218;6.564;2023-03-04T12:02:47;47001.66;;;-142.92;67.50
56456;BME280;42354;53.218;6.564;2023-03-04T12:05:27;47003.69;;;-142.92;66.56
56456;BME280;42354;53.218;6.564;2023-03-04T12:08:22;46979.06;;;-142.92;65.02
56456;BME280;42354;53.218;6.564;2023-03-04T12:11:01;46995.50;;;-142.92;64.31
56456;BME280;42354;53.218;6.564;2023-03-04T12:26:35;46974.97;;;-142.92;66.72
56456;BME280;42354;53.218;6.564;2023-03-04T12:29:09;46989.34;;;-142.92;66.49
56456;BME280;42354;53.218;6.564;2023-03-04T12:31:42;47005.75;;;-142.92;65.99
56456;BME280;42354;53.218;6.564;2023-03-04T12:34:33;46991.38;;;-142.92;66.04
56456;BME280;42354;53.218;6.564;2023-03-04T12:37:26;46997.53;;;-142.92;65.75
56456;BME280;42354;53.218;6.564;2023-03-04T12:40:05;46981.13;;;-142.92;63.76
56456;BME280;42354;53.218;6.564;2023-03-04T12:50:40;47009.84;;;-142.92;64.29
56456;BME280;42354;53.218;6.564;2023-03-04T12:55:48;46987.28;;;-142.92;75.85
56456;BME280;42354;53.218;6.564;2023-03-04T12:58:20;46991.38;;;-142.92;79.27
56456;BME280;42354;53.218;6.564;2023-03-04T13:01:17;47009.84;;;-142.92;79.92
56456;BME280;42354;53.218;6.564;2023-03-04T13:04:08;46991.38;;;-142.92;78.71
56456;BME280;42354;53.218;6.564;2023-03-04T13:12:21;46989.34;;;-142.92;77.21
56456;BME280;42354;53.218;6.564;2023-03-04T13:17:48;47007.81;;;-142.92;75.24
56456;BME280;42354;53.218;6.564;2023-03-04T13:20:37;46987.28;;;-142.92;76.11
56456;BME280;42354;53.218;6.564;2023-03-04T13:25:42;46997.53;;;-142.92;73.87
56456;BME280;42354;53.218;6.564;2023-03-04T13:30:40;46999.59;;;-142.92;73.15
56456;BME280;42354;53.218;6.564;2023-03-04T13:41:13;46993.44;;;-142.92;70.73
56456;BME280;42354;53.218;6.564;2023-03-04T13:43:45;46987.28;;;-142.92;71.23
56456;BME280;42354;53.218;6.564;2023-03-04T13:56:33;46995.50;;;-142.92;70.46
56456;BME280;42354;53.218;6.564;2023-03-04T13:59:21;46987.28;;;-142.92;70.22
56456;BME280;42354;53.218;6.564;2023-03-04T14:02:01;46995.50;;;-142.92;68.57
56456;BME280;42354;53.218;6.564;2023-03-04T14:06:57;47011.91;;;-142.92;68.54
56456;BME280;42354;53.218;6.564;2023-03-04T14:09:29;46981.13;;;-142.92;68.64
56456;BME280;42354;53.218;6.564;2023-03-04T14:11:57;46993.44;;;-142.92;69.01
56456;BME280;42354;53.218;6.564;2023-03-04T14:14:27;47016.00;;;-142.92;68.82
56456;BME280;42354;53.218;6.564;2023-03-04T14:17:05;46999.59;;;-142.92;68.40
56456;BME280;42354;53.218;6.564;2023-03-04T14:19:43;47020.13;;;-142.92;69.83
56456;BME280;42354;53.218;6.564;2023-03-04T14:22:25;46991.38;;;-142.92;71.37